X  Cerrar Datos meteorológicos de aviación METAR     LEXJ Santander Airport
Temperatura
18°C Temperatura
15°C Punto de rocío
83% Humedad



Viento
13 KM/H
8 MPH
4 M/S
7 NUDO



300°
ONO
Condiciones actuales

Nubes mayormente dispersas Nubes mayormente dispersas
Presión 1025.92 (hPa) - 30.3 (inHg)
Visibilidad 6.2 (milla) - 10 (km)
✈️ Santander
Código de aeropuerto LEXJ

localidad: Santander Airport
Distancia: 36 (km)

Metar:
LEXJ 211700Z 30007KT 270V330 9999 SCT030 SCT060 18/15 Q1026

Hora: 21-09-2021 19:00 CEST